createdAt,value
2019-02-12T00:00:53.383Z,25.43
2019-02-12T00:03:23.884Z,14.27
2019-02-12T00:05:53.347Z,30.93
2019-02-12T00:08:22.851Z,20.23
2019-02-12T00:10:52.352Z,17.37
2019-02-12T00:13:21.827Z,36.47
2019-02-12T00:15:51.326Z,28.43
2019-02-12T00:18:21.673Z,27.70
2019-02-12T00:20:51.180Z,14.73
2019-02-12T00:23:20.669Z,27.00
2019-02-12T00:25:50.177Z,21.97
2019-02-12T00:28:20.032Z,28.70
2019-02-12T00:30:49.553Z,25.53
2019-02-12T00:33:19.070Z,23.40
2019-02-12T00:35:48.571Z,22.10
2019-02-12T00:38:18.057Z,21.53
2019-02-12T00:40:47.579Z,19.73
2019-02-12T00:43:17.069Z,18.33
2019-02-12T00:45:47.537Z,24.50
2019-02-12T00:48:17.052Z,21.83
2019-02-12T00:50:46.621Z,14.27
2019-02-12T00:53:16.110Z,19.50
2019-02-12T00:55:45.616Z,24.50
2019-02-12T00:58:15.153Z,31.40
2019-02-12T01:00:44.659Z,12.57
2019-02-12T01:03:14.172Z,19.83
2019-02-12T01:05:46.851Z,16.30
2019-02-12T01:08:16.372Z,38.53
2019-02-12T01:10:45.858Z,16.57
2019-02-12T01:13:15.394Z,31.43
2019-02-12T01:15:44.884Z,27.57
2019-02-12T01:18:14.418Z,24.73
2019-02-12T01:20:43.919Z,22.17
2019-02-12T01:23:13.482Z,37.07
2019-02-12T01:25:42.961Z,20.80
2019-02-12T01:28:12.454Z,27.83
2019-02-12T01:30:42.071Z,26.97
2019-02-12T01:33:11.580Z,21.03
2019-02-12T01:35:41.091Z,26.03
2019-02-12T01:38:10.590Z,22.53
2019-02-12T01:40:40.128Z,23.93
2019-02-12T01:43:09.617Z,18.33
2019-02-12T01:45:39.157Z,24.80
2019-02-12T01:48:09.609Z,26.83
2019-02-12T01:50:39.113Z,27.40
2019-02-12T01:53:08.680Z,29.67
2019-02-12T01:55:38.196Z,28.47
2019-02-12T01:58:07.716Z,19.03
2019-02-12T02:00:37.288Z,26.00
2019-02-12T02:03:06.826Z,21.70
2019-02-12T02:05:36.323Z,19.80
2019-02-12T02:08:05.852Z,20.33
2019-02-12T02:10:35.402Z,19.80
2019-02-12T02:13:04.988Z,29.33
2019-02-12T02:15:35.521Z,17.40
2019-02-12T02:18:05.026Z,25.83
2019-02-12T02:20:34.560Z,36.27
2019-02-12T02:23:04.096Z,22.73
2019-02-12T02:25:33.614Z,27.57
2019-02-12T02:28:03.114Z,22.97
2019-02-12T02:30:32.641Z,26.33
2019-02-12T02:33:02.227Z,28.70
2019-02-12T02:35:31.729Z,18.33
2019-02-12T02:38:01.285Z,15.03
2019-02-12T02:40:30.794Z,17.97
2019-02-12T02:43:00.490Z,29.00
2019-02-12T02:45:30.014Z,31.83
2019-02-12T02:47:59.506Z,22.20
2019-02-12T02:50:29.029Z,16.70
2019-02-12T02:52:58.547Z,24.90
2019-02-12T02:55:28.055Z,16.17
2019-02-12T02:57:57.565Z,26.57
2019-02-12T03:00:27.090Z,33.03
2019-02-12T03:02:56.635Z,21.43
2019-02-12T03:05:26.159Z,24.27
2019-02-12T03:07:55.680Z,32.27
2019-02-12T03:10:25.173Z,28.40
2019-02-12T03:12:54.757Z,42.80
2019-02-12T03:15:24.278Z,38.33
2019-02-12T03:17:53.793Z,45.20
2019-02-12T03:20:23.315Z,21.67
2019-02-12T03:22:52.838Z,23.23
2019-02-12T03:25:22.370Z,29.53
2019-02-12T03:27:51.898Z,26.93
2019-02-12T03:30:21.483Z,25.07
2019-02-12T03:32:50.971Z,22.67
2019-02-12T03:35:21.401Z,16.20
2019-02-12T03:37:51.118Z,29.40
2019-02-12T03:40:20.601Z,21.80
2019-02-12T03:42:50.939Z,28.03
2019-02-12T03:45:20.503Z,34.20
2019-02-12T03:47:52.000Z,31.13
2019-02-12T03:50:21.521Z,29.60
2019-02-12T03:52:51.034Z,26.37
2019-02-12T03:55:20.562Z,28.03
2019-02-12T03:57:51.220Z,24.20
2019-02-12T04:00:20.734Z,26.30
2019-02-12T04:02:59.426Z,34.40
2019-02-12T04:05:28.994Z,26.40
2019-02-12T04:07:58.534Z,33.60
2019-02-12T04:10:28.063Z,31.90
2019-02-12T04:12:57.651Z,20.50
2019-02-12T04:15:27.143Z,29.17
2019-02-12T04:17:56.663Z,30.60
2019-02-12T04:20:26.260Z,23.60
2019-02-12T04:22:55.749Z,23.43
2019-02-12T04:25:26.159Z,25.83
2019-02-12T04:27:55.798Z,19.50
2019-02-12T04:30:25.315Z,18.67
2019-02-12T04:32:55.928Z,22.07
2019-02-12T04:35:25.425Z,21.63
2019-02-12T04:37:56.003Z,19.67
2019-02-12T04:40:25.557Z,25.37
2019-02-12T04:42:55.076Z,24.07
2019-02-12T04:45:25.602Z,31.30
2019-02-12T04:47:55.138Z,26.17
2019-02-12T04:50:24.693Z,35.07
2019-02-12T04:52:54.262Z,25.80
2019-02-12T04:55:23.804Z,30.87
2019-02-12T04:57:53.321Z,23.67
2019-02-12T05:00:23.763Z,30.97
2019-02-12T05:02:53.351Z,28.20
2019-02-12T05:05:23.273Z,21.40
2019-02-12T05:07:52.781Z,32.97
2019-02-12T05:10:34.361Z,36.37
2019-02-12T05:13:03.852Z,29.73
2019-02-12T05:15:33.354Z,34.37
2019-02-12T05:18:02.880Z,27.87
2019-02-12T05:20:32.384Z,21.73
2019-02-12T05:23:01.927Z,25.83
2019-02-12T05:25:31.422Z,20.67
2019-02-12T05:28:00.936Z,23.57
2019-02-12T05:30:30.457Z,18.87
2019-02-12T05:33:00.032Z,25.53
2019-02-12T05:35:30.553Z,28.93
2019-02-12T05:38:00.082Z,24.43
2019-02-12T05:40:29.603Z,22.80
2019-02-12T05:42:59.109Z,28.53
2019-02-12T05:45:28.604Z,26.93
2019-02-12T05:47:58.139Z,17.27
2019-02-12T05:50:27.734Z,26.07
2019-02-12T05:52:57.266Z,25.20
2019-02-12T05:55:26.839Z,20.60
2019-02-12T05:57:56.331Z,22.77
2019-02-12T06:00:27.481Z,30.57
2019-02-12T06:02:58.037Z,53.13
2019-02-12T06:05:30.583Z,24.20
2019-02-12T06:08:00.558Z,33.47
2019-02-12T06:10:31.042Z,22.13
2019-02-12T06:13:01.537Z,30.40
2019-02-12T06:15:31.039Z,34.30
2019-02-12T06:18:00.621Z,25.67
2019-02-12T06:20:30.145Z,31.37
2019-02-12T06:23:03.771Z,26.00
2019-02-12T06:25:30.882Z,29.07
2019-02-12T06:28:01.812Z,41.40
2019-02-12T06:30:32.277Z,32.60
2019-02-12T06:33:07.706Z,29.83
2019-02-12T06:35:33.273Z,32.97
2019-02-12T06:38:02.821Z,28.77
2019-02-12T06:40:32.370Z,27.03
2019-02-12T06:43:01.909Z,30.43
2019-02-12T06:45:31.420Z,33.80
2019-02-12T06:48:00.916Z,38.00
2019-02-12T06:50:30.463Z,34.97
2019-02-12T06:53:00.015Z,29.63
2019-02-12T06:55:29.545Z,22.00
2019-02-12T06:57:59.050Z,28.37
2019-02-12T07:00:28.668Z,27.57
2019-02-12T07:03:18.296Z,41.97
2019-02-12T07:05:56.872Z,26.23
2019-02-12T07:08:47.661Z,37.93
2019-02-12T07:11:34.933Z,31.57
2019-02-12T07:14:41.998Z,41.63
2019-02-12T07:17:23.569Z,24.53
2019-02-12T07:20:12.840Z,22.20
2019-02-12T07:23:00.097Z,31.03
2019-02-12T07:25:32.718Z,28.00
2019-02-12T07:28:14.037Z,25.33
2019-02-12T07:31:12.023Z,29.63
2019-02-12T07:34:05.813Z,28.23
2019-02-12T07:36:41.224Z,31.03
2019-02-12T07:39:34.705Z,35.43
2019-02-12T07:42:19.013Z,28.80
2019-02-12T07:45:00.544Z,31.53
2019-02-12T07:47:39.012Z,27.70
2019-02-12T07:50:11.653Z,25.17
2019-02-12T07:52:47.100Z,27.63
2019-02-12T07:55:29.089Z,30.50
2019-02-12T07:58:01.672Z,27.07
2019-02-12T08:00:48.915Z,21.83
2019-02-12T08:03:30.085Z,29.43
2019-02-12T08:06:02.684Z,25.63
2019-02-12T08:08:41.052Z,21.10
2019-02-12T08:11:16.404Z,26.20
2019-02-12T08:14:03.848Z,32.73
2019-02-12T08:16:45.456Z,25.17
2019-02-12T08:19:34.428Z,31.67
2019-02-12T08:22:21.945Z,26.90
2019-02-12T08:25:27.585Z,20.47
2019-02-12T08:28:08.972Z,32.27
2019-02-12T08:30:53.502Z,31.83
2019-02-12T08:33:32.145Z,30.00
2019-02-12T08:36:07.444Z,30.70
2019-02-12T08:38:45.677Z,29.67
2019-02-12T08:41:33.131Z,27.73
2019-02-12T08:44:35.873Z,29.37
2019-02-12T08:47:17.539Z,25.53
2019-02-12T08:50:04.868Z,30.70
2019-02-12T08:52:55.342Z,27.90
2019-02-12T08:56:00.613Z,26.17
2019-02-12T08:58:51.041Z,26.77
2019-02-12T09:01:26.461Z,33.03
2019-02-12T09:04:15.362Z,20.17
2019-02-12T09:07:22.129Z,23.43
2019-02-12T09:10:23.666Z,28.07
2019-02-12T09:13:14.165Z,27.40
2019-02-12T09:16:07.792Z,26.03
2019-02-12T09:18:46.315Z,28.33
2019-02-12T09:21:33.651Z,38.67
2019-02-12T09:24:12.089Z,17.40
2019-02-12T09:27:16.074Z,26.33
2019-02-12T09:29:57.716Z,20.57
2019-02-12T09:32:55.976Z,19.67
2019-02-12T09:35:34.637Z,26.60
2019-02-12T09:38:32.744Z,20.97
2019-02-12T09:41:11.435Z,27.23
2019-02-12T09:44:00.404Z,25.67
2019-02-12T09:46:47.922Z,27.27
2019-02-12T09:49:29.586Z,25.33
2019-02-12T09:52:21.684Z,31.53
2019-02-12T09:55:14.537Z,26.03
2019-02-12T09:57:52.763Z,21.53
2019-02-12T10:00:25.327Z,19.90
2019-02-12T10:03:22.096Z,28.30
2019-02-12T10:06:00.401Z,26.07
2019-02-12T10:08:41.505Z,21.43
2019-02-12T10:11:23.001Z,24.43
2019-02-12T10:14:22.496Z,28.83
2019-02-12T10:16:57.890Z,29.93
2019-02-12T10:19:33.331Z,37.90
2019-02-12T10:22:11.606Z,21.40
2019-02-12T10:24:44.262Z,34.97
2019-02-12T10:27:22.884Z,22.47
2019-02-12T10:30:01.196Z,22.70
2019-02-12T10:32:29.637Z,28.90
2019-02-12T10:34:59.113Z,26.37
2019-02-12T10:37:28.637Z,23.50
2019-02-12T10:39:58.735Z,27.33
2019-02-12T10:42:28.261Z,22.43
2019-02-12T10:44:57.768Z,23.23
2019-02-12T10:47:27.301Z,30.73
2019-02-12T10:49:56.792Z,23.07
2019-02-12T10:52:26.305Z,20.07
2019-02-12T10:54:55.826Z,23.97
2019-02-12T10:57:25.340Z,20.33
2019-02-12T10:59:55.792Z,23.37
2019-02-12T11:02:25.281Z,29.43
2019-02-12T11:04:54.788Z,20.50
2019-02-12T11:07:24.433Z,30.70
2019-02-12T11:09:53.929Z,29.90
2019-02-12T11:12:23.479Z,27.13
2019-02-12T11:14:53.063Z,25.90
2019-02-12T11:17:22.579Z,21.10
2019-02-12T11:19:52.173Z,28.00
2019-02-12T11:22:21.668Z,25.33
2019-02-12T11:24:51.153Z,25.00
2019-02-12T11:27:20.663Z,30.67
2019-02-12T11:29:50.201Z,26.17
2019-02-12T11:32:19.693Z,30.17
2019-02-12T11:34:49.216Z,27.20
2019-02-12T11:37:18.743Z,31.60
2019-02-12T11:39:48.452Z,30.50
2019-02-12T11:42:17.986Z,29.40
2019-02-12T11:44:47.580Z,29.63
2019-02-12T11:47:17.072Z,25.90
2019-02-12T11:49:46.595Z,31.70
2019-02-12T11:52:16.073Z,34.53
2019-02-12T11:54:45.605Z,32.97
2019-02-12T11:57:15.882Z,29.43
2019-02-12T11:59:45.595Z,38.83
2019-02-12T12:02:15.454Z,32.17
2019-02-12T12:04:44.934Z,35.33
2019-02-12T12:07:14.430Z,40.43
2019-02-12T12:09:44.113Z,34.37
2019-02-12T12:12:13.612Z,33.83
2019-02-12T12:14:43.112Z,31.90
2019-02-12T12:17:12.638Z,30.07
2019-02-12T12:19:42.151Z,35.50
2019-02-12T12:22:12.658Z,30.00
2019-02-12T12:24:42.249Z,39.53
2019-02-12T12:27:11.749Z,35.20
2019-02-12T12:29:41.300Z,41.07
2019-02-12T12:32:10.789Z,30.77
2019-02-12T12:34:40.344Z,38.87
2019-02-12T12:37:09.959Z,44.27
2019-02-12T12:39:39.539Z,39.33
2019-02-12T12:42:09.058Z,36.70
2019-02-12T12:44:38.629Z,33.07
2019-02-12T12:47:08.236Z,35.73
2019-02-12T12:49:37.742Z,33.60
2019-02-12T12:52:07.241Z,39.87
2019-02-12T12:54:36.783Z,34.83
2019-02-12T12:57:06.257Z,27.53
2019-02-12T12:59:35.760Z,27.37
2019-02-12T13:02:06.497Z,29.03
2019-02-12T13:04:36.002Z,34.47
2019-02-12T13:07:05.508Z,34.93
2019-02-12T13:09:35.070Z,30.47
2019-02-12T13:12:04.653Z,27.80
2019-02-12T13:14:34.197Z,32.03
2019-02-12T13:17:04.026Z,28.50
2019-02-12T13:19:33.524Z,29.33
2019-02-12T13:22:03.003Z,29.00
2019-02-12T13:24:32.524Z,26.00
2019-02-12T13:27:02.077Z,24.60
2019-02-12T13:29:31.558Z,25.60
2019-02-12T13:32:01.050Z,28.50
2019-02-12T13:34:30.909Z,26.00
2019-02-12T13:37:00.447Z,30.67
2019-02-12T13:39:30.000Z,22.57
2019-02-12T13:41:59.730Z,39.40
2019-02-12T13:44:29.243Z,22.30
2019-02-12T13:46:58.741Z,23.73
2019-02-12T13:49:28.306Z,23.60
2019-02-12T13:51:57.843Z,25.27
2019-02-12T13:54:27.358Z,20.10
2019-02-12T13:56:56.884Z,28.30
2019-02-12T13:59:26.438Z,25.80
2019-02-12T14:01:55.967Z,23.37
2019-02-12T14:04:25.459Z,24.83
2019-02-12T14:06:54.966Z,23.90
2019-02-12T14:09:25.425Z,23.63
2019-02-12T14:11:54.914Z,28.00
2019-02-12T14:14:24.428Z,22.27
2019-02-12T14:16:53.941Z,27.27
2019-02-12T14:19:23.460Z,22.60
2019-02-12T14:21:52.960Z,26.50
2019-02-12T14:24:22.467Z,22.73
2019-02-12T14:26:53.014Z,35.87
2019-02-12T14:29:22.543Z,21.37
2019-02-12T14:31:53.243Z,25.67
2019-02-12T14:34:22.757Z,22.23
2019-02-12T14:36:52.294Z,27.30
2019-02-12T14:39:21.787Z,23.47
2019-02-12T14:41:51.292Z,21.50
2019-02-12T14:44:20.805Z,23.63
2019-02-12T14:46:50.330Z,23.00
2019-02-12T14:49:19.826Z,27.50
2019-02-12T14:51:49.369Z,23.30
2019-02-12T14:54:18.890Z,21.73
2019-02-12T14:56:48.382Z,24.30
2019-02-12T14:59:17.899Z,22.47
2019-02-12T15:01:47.497Z,22.43
2019-02-12T15:04:16.984Z,23.23
2019-02-12T15:06:46.521Z,24.07
2019-02-12T15:09:16.185Z,25.40
2019-02-12T15:11:45.678Z,26.83
2019-02-12T15:14:15.240Z,25.10
2019-02-12T15:16:44.769Z,21.67
2019-02-12T15:19:14.276Z,29.93
2019-02-12T15:21:43.793Z,25.37
2019-02-12T15:24:13.290Z,31.50
2019-02-12T15:26:42.779Z,26.20
2019-02-12T15:29:12.317Z,26.33
2019-02-12T15:31:41.852Z,23.37
2019-02-12T15:34:11.345Z,30.17
2019-02-12T15:36:40.873Z,26.93
2019-02-12T15:39:10.357Z,26.83
2019-02-12T15:41:39.885Z,28.60
2019-02-12T15:44:09.517Z,27.03
2019-02-12T15:46:38.997Z,24.10
2019-02-12T15:49:08.484Z,32.00
2019-02-12T15:51:38.025Z,31.20
2019-02-12T15:54:07.513Z,27.80
2019-02-12T15:56:37.001Z,31.00
2019-02-12T15:59:06.530Z,30.73
2019-02-12T16:01:36.404Z,27.57
2019-02-12T16:04:05.926Z,30.50
2019-02-12T16:06:35.473Z,30.23
2019-02-12T16:09:05.723Z,29.67
2019-02-12T16:11:35.424Z,32.13
2019-02-12T16:14:06.456Z,38.13
2019-02-12T16:16:35.945Z,28.10
2019-02-12T16:19:06.252Z,31.30
2019-02-12T16:21:36.667Z,29.03
2019-02-12T16:24:06.204Z,32.37
2019-02-12T16:26:35.702Z,30.70
2019-02-12T16:29:05.195Z,30.53
2019-02-12T16:31:34.736Z,29.30
2019-02-12T16:34:04.242Z,31.40
2019-02-12T16:36:33.791Z,34.07
2019-02-12T16:39:05.186Z,30.27
2019-02-12T16:41:34.710Z,36.20
2019-02-12T16:44:04.237Z,32.03
2019-02-12T16:46:33.728Z,35.77
2019-02-12T16:49:03.247Z,39.37
2019-02-12T16:51:33.469Z,30.33
2019-02-12T16:54:03.490Z,36.77
2019-02-12T16:56:33.114Z,34.43
2019-02-12T16:59:03.771Z,37.37
2019-02-12T17:01:33.479Z,36.57
2019-02-12T17:04:03.153Z,35.50
2019-02-12T17:06:32.694Z,37.20
2019-02-12T17:09:02.202Z,38.93
2019-02-12T17:11:31.785Z,33.13
2019-02-12T17:14:02.820Z,33.47
2019-02-12T17:16:32.359Z,33.93
2019-02-12T17:19:01.953Z,36.07
2019-02-12T17:21:31.456Z,35.50
2019-02-12T17:24:01.408Z,34.70
2019-02-12T17:26:30.905Z,36.10
2019-02-12T17:29:00.414Z,35.83
2019-02-12T17:31:29.937Z,32.10
2019-02-12T17:33:59.421Z,36.33
2019-02-12T17:36:28.945Z,40.77
2019-02-12T17:38:59.525Z,31.00
2019-02-12T17:41:29.037Z,38.20
2019-02-12T17:43:58.564Z,36.60
2019-02-12T17:46:28.053Z,37.80
2019-02-12T17:48:57.549Z,42.17
2019-02-12T17:51:27.997Z,40.40
2019-02-12T17:53:58.497Z,39.03
2019-02-12T17:56:27.979Z,38.97
2019-02-12T17:58:57.865Z,34.70
2019-02-12T18:01:27.369Z,38.30
2019-02-12T18:03:56.941Z,46.60
2019-02-12T18:06:26.453Z,43.23
2019-02-12T18:08:55.973Z,40.03
2019-02-12T18:11:25.477Z,38.43
2019-02-12T18:13:54.973Z,40.50
2019-02-12T18:16:24.500Z,41.20
2019-02-12T18:18:54.009Z,37.00
2019-02-12T18:21:23.513Z,36.50
2019-02-12T18:23:53.374Z,41.87
2019-02-12T18:26:22.907Z,40.27
2019-02-12T18:28:52.472Z,40.93
2019-02-12T18:31:21.959Z,37.43
2019-02-12T18:33:51.635Z,42.70
2019-02-12T18:36:21.185Z,41.60
2019-02-12T18:38:50.676Z,38.73
2019-02-12T18:41:20.166Z,39.70
2019-02-12T18:43:49.723Z,45.47
2019-02-12T18:46:19.266Z,31.50
2019-02-12T18:48:48.758Z,48.57
2019-02-12T18:51:18.571Z,34.90
2019-02-12T18:53:48.101Z,39.53
2019-02-12T18:56:19.373Z,42.00
2019-02-12T18:58:48.893Z,34.33
2019-02-12T19:01:18.404Z,37.60
2019-02-12T19:03:47.908Z,41.03
2019-02-12T19:06:17.518Z,42.50
2019-02-12T19:08:47.069Z,36.57
2019-02-12T19:11:16.573Z,39.20
2019-02-12T19:13:46.085Z,30.47
2019-02-12T19:16:15.597Z,32.07
2019-02-12T19:18:45.151Z,34.43
2019-02-12T19:21:14.721Z,35.43
2019-02-12T19:23:44.279Z,38.00
2019-02-12T19:26:13.805Z,39.77
2019-02-12T19:28:43.329Z,36.13
2019-02-12T19:31:12.845Z,39.83
2019-02-12T19:33:42.370Z,36.80
2019-02-12T19:36:11.889Z,37.43
2019-02-12T19:38:41.372Z,35.93
2019-02-12T19:41:10.892Z,41.60
2019-02-12T19:43:41.372Z,32.13
2019-02-12T19:46:10.920Z,36.97
2019-02-12T19:48:40.402Z,34.47
2019-02-12T19:51:09.894Z,34.40
2019-02-12T19:53:39.439Z,40.50
2019-02-12T19:56:08.932Z,37.47
2019-02-12T19:58:38.426Z,38.30
2019-02-12T20:01:07.960Z,33.70
2019-02-12T20:03:37.477Z,37.80
2019-02-12T20:06:07.005Z,38.90
2019-02-12T20:08:36.534Z,36.20
2019-02-12T20:11:06.050Z,34.30
2019-02-12T20:13:35.604Z,36.63
2019-02-12T20:16:05.131Z,36.10
2019-02-12T20:18:34.740Z,33.63
2019-02-12T20:21:05.141Z,33.30
2019-02-12T20:23:34.640Z,32.77
2019-02-12T20:26:05.151Z,39.80
2019-02-12T20:28:40.370Z,38.63
2019-02-12T20:31:15.867Z,33.53
2019-02-12T20:33:46.339Z,31.43
2019-02-12T20:36:17.780Z,36.80
2019-02-12T20:38:47.561Z,35.60
2019-02-12T20:41:33.895Z,39.37
2019-02-12T20:44:07.782Z,31.90
2019-02-12T20:46:46.229Z,31.97
2019-02-12T20:49:17.663Z,35.47
2019-02-12T20:51:49.247Z,38.00
2019-02-12T20:54:24.440Z,35.87
2019-02-12T20:56:53.929Z,36.33
2019-02-12T20:59:44.541Z,34.50
2019-02-12T21:02:20.114Z,30.97
2019-02-12T21:04:50.571Z,34.80
2019-02-12T21:07:22.685Z,31.10
2019-02-12T21:09:52.191Z,37.43
2019-02-12T21:12:21.719Z,33.33
2019-02-12T21:14:51.271Z,39.17
2019-02-12T21:17:21.783Z,37.73
2019-02-12T21:19:51.289Z,31.67
2019-02-12T21:22:21.790Z,36.63
2019-02-12T21:24:51.330Z,33.20
2019-02-12T21:27:23.325Z,33.13
2019-02-12T21:29:52.073Z,31.73
2019-02-12T21:32:21.821Z,38.47
2019-02-12T21:34:51.333Z,32.70
2019-02-12T21:37:20.836Z,34.37
2019-02-12T21:39:50.384Z,33.00
2019-02-12T21:42:19.881Z,35.60
2019-02-12T21:44:49.416Z,35.90
2019-02-12T21:47:18.923Z,31.20
2019-02-12T21:49:48.440Z,32.10
2019-02-12T21:52:17.973Z,37.90
2019-02-12T21:54:47.484Z,32.17
2019-02-12T21:57:17.151Z,34.20
2019-02-12T21:59:46.673Z,37.63
2019-02-12T22:02:16.185Z,36.87
2019-02-12T22:04:45.760Z,31.17
2019-02-12T22:07:15.248Z,39.50
2019-02-12T22:09:44.771Z,40.40
2019-02-12T22:12:14.480Z,36.07
2019-02-12T22:14:43.963Z,37.30
2019-02-12T22:17:13.465Z,38.10
2019-02-12T22:19:43.013Z,36.00
2019-02-12T22:22:12.502Z,40.80
2019-02-12T22:24:42.034Z,41.17
2019-02-12T22:27:11.526Z,40.00
2019-02-12T22:29:41.053Z,33.80
2019-02-12T22:32:10.564Z,37.43
2019-02-12T22:34:40.065Z,40.93
2019-02-12T22:37:09.576Z,34.30
2019-02-12T22:39:39.096Z,40.50
2019-02-12T22:42:08.582Z,42.33
2019-02-12T22:44:38.097Z,38.77
2019-02-12T22:47:07.598Z,39.87
2019-02-12T22:49:37.105Z,38.50
2019-02-12T22:52:06.612Z,37.80
2019-02-12T22:54:36.108Z,37.03
2019-02-12T22:57:05.809Z,45.97
2019-02-12T22:59:35.313Z,37.93
2019-02-12T23:02:05.052Z,37.77
2019-02-12T23:04:34.617Z,37.83
2019-02-12T23:07:05.308Z,43.87
2019-02-12T23:09:34.896Z,39.00
2019-02-12T23:12:04.489Z,43.23
2019-02-12T23:14:34.020Z,45.10
2019-02-12T23:17:03.514Z,43.07
2019-02-12T23:19:33.992Z,44.10
2019-02-12T23:22:03.498Z,41.43
2019-02-12T23:24:33.084Z,39.90
2019-02-12T23:27:02.617Z,43.43
2019-02-12T23:29:32.109Z,41.87
2019-02-12T23:32:01.608Z,43.30
2019-02-12T23:34:31.162Z,40.43
2019-02-12T23:37:00.655Z,37.50
2019-02-12T23:39:30.161Z,38.90
2019-02-12T23:41:59.672Z,40.93
2019-02-12T23:44:29.164Z,46.77
2019-02-12T23:46:59.653Z,36.93
2019-02-12T23:49:29.210Z,46.87
2019-02-12T23:51:58.704Z,41.27
2019-02-12T23:54:28.204Z,40.30
2019-02-12T23:56:57.922Z,40.97
2019-02-12T23:59:27.421Z,43.30
